LFOP/URO METAR and TAF weather

Enter ICAO airport designator
Station Type Date Time Source
LFOP METAR 2019/02/20 08:00 UTC NOAA

LFOP 200800Z AUTO 16004KT 130V190 0250 0200 R22/0225N FG VV/// 03/03 Q1022 NOSIG


Station Type Date Time Source
LFOP Decoded METAR 2019/02/20 08:00 UTC NOAA

Rouen, France (LFOP) 49-23N 001-11E 157M
Feb 20, 2019 - 03:00 AM EST / 2019.02.20 0800 UTC
Wind: from the SSE (160 degrees) at 5 MPH (4 KT) (direction variable):0
Visibility: less than 1 mile:0
Sky conditions: obscured
Weather: fog
Temperature: 37 F (3 C)
Dew Point: 37 F (3 C)
Relative Humidity: 100%
Pressure (altimeter): 30.18 in. Hg (1022 hPa)
ob: LFOP 200800Z AUTO 16004KT 130V190 0250 0200 R22/0225N FG VV/// 03/03 Q1022 NOSIG
cycle: 8

Station Type Date Time Source
LFOP TAF 2019/02/20 06:59 UTC NOAA

TAF
AMD LFOP 200651Z 2006/2106 18005KT 0600 FG VV///
TEMPO 2006/2010 0300
BECMG 2010/2012 8000 NSW BKN004
BECMG 2012/2014 SCT030
BECMG 2022/2101 0500 FG VV///


Example: see airport list